sensor_id;sensor_type;location;lat;lon;timestamp;temperature;humidity
39919;DHT22;25589;51.552;13.424;2023-08-17T00:00:10;23.40;99.90
39919;DHT22;25589;51.552;13.424;2023-08-17T00:02:42;23.40;99.90
39919;DHT22;25589;51.552;13.424;2023-08-17T00:05:08;23.30;99.90
39919;DHT22;25589;51.552;13.424;2023-08-17T00:07:36;23.30;99.90
39919;DHT22;25589;51.552;13.424;2023-08-17T00:10:01;23.30;99.90
39919;DHT22;25589;51.552;13.424;2023-08-17T00:12:28;23.20;99.90
39919;DHT22;25589;51.552;13.424;2023-08-17T00:14:54;23.10;99.90
39919;DHT22;25589;51.552;13.424;2023-08-17T00:17:20;23.10;99.90
39919;DHT22;25589;51.552;13.424;2023-08-17T00:19:46;23.20;99.90
39919;DHT22;25589;51.552;13.424;2023-08-17T00:22:11;23.20;99.90
39919;DHT22;25589;51.552;13.424;2023-08-17T00:24:37;23.20;99.90
39919;DHT22;25589;51.552;13.424;2023-08-17T00:27:03;23.10;99.90
39919;DHT22;25589;51.552;13.424;2023-08-17T00:29:29;23.10;99.90
39919;DHT22;25589;51.552;13.424;2023-08-17T00:31:55;22.90;99.90
39919;DHT22;25589;51.552;13.424;2023-08-17T00:34:21;22.90;99.90
39919;DHT22;25589;51.552;13.424;2023-08-17T00:36:47;22.80;99.90
39919;DHT22;25589;51.552;13.424;2023-08-17T00:39:13;22.90;99.90
39919;DHT22;25589;51.552;13.424;2023-08-17T00:41:39;22.90;99.90
39919;DHT22;25589;51.552;13.424;2023-08-17T00:44:05;22.90;99.90
39919;DHT22;25589;51.552;13.424;2023-08-17T00:46:31;22.90;99.90
39919;DHT22;25589;51.552;13.424;2023-08-17T00:48:57;22.80;99.90
39919;DHT22;25589;51.552;13.424;2023-08-17T00:51:24;22.80;99.90
39919;DHT22;25589;51.552;13.424;2023-08-17T00:53:57;22.80;99.90
39919;DHT22;25589;51.552;13.424;2023-08-17T00:56:23;22.80;99.90
39919;DHT22;25589;51.552;13.424;2023-08-17T00:58:49;22.80;99.90
39919;DHT22;25589;51.552;13.424;2023-08-17T01:01:15;22.80;99.90
39919;DHT22;25589;51.552;13.424;2023-08-17T01:03:40;22.80;99.90
39919;DHT22;25589;51.552;13.424;2023-08-17T01:06:07;22.70;99.90
39919;DHT22;25589;51.552;13.424;2023-08-17T01:08:33;22.70;99.90
39919;DHT22;25589;51.552;13.424;2023-08-17T01:13:51;22.70;99.90
39919;DHT22;25589;51.552;13.424;2023-08-17T01:16:20;22.70;99.90
39919;DHT22;25589;51.552;13.424;2023-08-17T01:18:49;22.70;99.90
39919;DHT22;25589;51.552;13.424;2023-08-17T01:21:17;22.70;99.90
39919;DHT22;25589;51.552;13.424;2023-08-17T01:23:46;22.60;99.90
39919;DHT22;25589;51.552;13.424;2023-08-17T01:26:12;22.60;99.90
39919;DHT22;25589;51.552;13.424;2023-08-17T01:28:42;22.50;99.90
39919;DHT22;25589;51.552;13.424;2023-08-17T01:31:12;22.50;99.90
39919;DHT22;25589;51.552;13.424;2023-08-17T01:33:55;22.50;99.90
39919;DHT22;25589;51.552;13.424;2023-08-17T01:36:42;22.50;99.90
39919;DHT22;25589;51.552;13.424;2023-08-17T01:39:09;22.40;99.90
39919;DHT22;25589;51.552;13.424;2023-08-17T01:41:36;22.30;99.90
39919;DHT22;25589;51.552;13.424;2023-08-17T01:44:04;22.30;99.90
39919;DHT22;25589;51.552;13.424;2023-08-17T01:46:33;22.30;99.90
39919;DHT22;25589;51.552;13.424;2023-08-17T01:48:59;22.20;99.90
39919;DHT22;25589;51.552;13.424;2023-08-17T01:51:25;22.20;99.90
39919;DHT22;25589;51.552;13.424;2023-08-17T01:53:51;22.20;99.90
39919;DHT22;25589;51.552;13.424;2023-08-17T01:56:17;22.20;99.90
39919;DHT22;25589;51.552;13.424;2023-08-17T01:58:44;22.20;99.90
39919;DHT22;25589;51.552;13.424;2023-08-17T02:01:10;22.20;99.90
39919;DHT22;25589;51.552;13.424;2023-08-17T02:03:35;22.20;99.90
39919;DHT22;25589;51.552;13.424;2023-08-17T02:06:01;22.20;99.90
39919;DHT22;25589;51.552;13.424;2023-08-17T02:08:26;22.00;99.90
39919;DHT22;25589;51.552;13.424;2023-08-17T02:10:53;22.00;99.90
39919;DHT22;25589;51.552;13.424;2023-08-17T02:13:20;22.00;99.90
39919;DHT22;25589;51.552;13.424;2023-08-17T02:15:47;22.00;99.90
39919;DHT22;25589;51.552;13.424;2023-08-17T02:18:12;22.00;99.90
39919;DHT22;25589;51.552;13.424;2023-08-17T02:20:38;22.00;99.90
39919;DHT22;25589;51.552;13.424;2023-08-17T02:23:04;22.00;99.90
39919;DHT22;25589;51.552;13.424;2023-08-17T02:25:29;22.00;99.90
39919;DHT22;25589;51.552;13.424;2023-08-17T02:28:01;22.00;99.90
39919;DHT22;25589;51.552;13.424;2023-08-17T02:30:27;21.90;99.90
39919;DHT22;25589;51.552;13.424;2023-08-17T02:32:53;22.00;99.90
39919;DHT22;25589;51.552;13.424;2023-08-17T02:35:18;22.00;99.90
39919;DHT22;25589;51.552;13.424;2023-08-17T02:37:44;22.00;99.90
39919;DHT22;25589;51.552;13.424;2023-08-17T02:40:10;21.90;99.90
39919;DHT22;25589;51.552;13.424;2023-08-17T02:42:36;21.90;99.90
39919;DHT22;25589;51.552;13.424;2023-08-17T02:45:02;21.90;99.90
39919;DHT22;25589;51.552;13.424;2023-08-17T02:47:28;22.00;99.90
39919;DHT22;25589;51.552;13.424;2023-08-17T02:49:54;22.00;99.90
39919;DHT22;25589;51.552;13.424;2023-08-17T02:52:20;21.90;99.90
39919;DHT22;25589;51.552;13.424;2023-08-17T02:54:46;22.00;99.90
39919;DHT22;25589;51.552;13.424;2023-08-17T02:57:13;22.00;99.90
39919;DHT22;25589;51.552;13.424;2023-08-17T02:59:39;21.90;99.90
39919;DHT22;25589;51.552;13.424;2023-08-17T03:02:04;21.90;99.90
39919;DHT22;25589;51.552;13.424;2023-08-17T03:04:30;21.90;99.90
39919;DHT22;25589;51.552;13.424;2023-08-17T03:06:55;21.90;99.90
39919;DHT22;25589;51.552;13.424;2023-08-17T03:09:21;21.90;99.90
39919;DHT22;25589;51.552;13.424;2023-08-17T03:11:46;21.90;99.90
39919;DHT22;25589;51.552;13.424;2023-08-17T03:14:12;21.80;99.90
39919;DHT22;25589;51.552;13.424;2023-08-17T03:16:38;21.70;99.90
39919;DHT22;25589;51.552;13.424;2023-08-17T03:19:03;21.70;99.90
39919;DHT22;25589;51.552;13.424;2023-08-17T03:21:29;21.70;99.90
39919;DHT22;25589;51.552;13.424;2023-08-17T03:23:55;21.70;99.90
39919;DHT22;25589;51.552;13.424;2023-08-17T03:26:20;21.60;99.90
39919;DHT22;25589;51.552;13.424;2023-08-17T03:28:46;21.50;99.90
39919;DHT22;25589;51.552;13.424;2023-08-17T03:31:12;21.60;99.90
39919;DHT22;25589;51.552;13.424;2023-08-17T03:33:37;21.60;99.90
39919;DHT22;25589;51.552;13.424;2023-08-17T03:36:04;21.50;99.90
39919;DHT22;25589;51.552;13.424;2023-08-17T03:38:29;21.50;99.90
39919;DHT22;25589;51.552;13.424;2023-08-17T03:40:55;21.50;99.90
39919;DHT22;25589;51.552;13.424;2023-08-17T03:43:22;21.60;99.90
39919;DHT22;25589;51.552;13.424;2023-08-17T03:45:48;21.60;99.90
39919;DHT22;25589;51.552;13.424;2023-08-17T03:48:13;21.60;99.90
39919;DHT22;25589;51.552;13.424;2023-08-17T03:50:39;21.50;99.90
39919;DHT22;25589;51.552;13.424;2023-08-17T03:53:05;21.50;99.90
39919;DHT22;25589;51.552;13.424;2023-08-17T03:55:31;21.60;99.90
39919;DHT22;25589;51.552;13.424;2023-08-17T03:57:56;21.50;99.90
39919;DHT22;25589;51.552;13.424;2023-08-17T04:00:22;21.50;99.90
39919;DHT22;25589;51.552;13.424;2023-08-17T04:02:53;21.50;99.90
39919;DHT22;25589;51.552;13.424;2023-08-17T04:05:19;21.60;99.90
39919;DHT22;25589;51.552;13.424;2023-08-17T04:07:45;21.60;99.90
39919;DHT22;25589;51.552;13.424;2023-08-17T04:10:11;21.50;99.90
39919;DHT22;25589;51.552;13.424;2023-08-17T04:12:36;21.50;99.90
39919;DHT22;25589;51.552;13.424;2023-08-17T04:15:02;21.40;99.90
39919;DHT22;25589;51.552;13.424;2023-08-17T04:17:28;21.50;99.90
39919;DHT22;25589;51.552;13.424;2023-08-17T04:19:53;21.50;99.90
39919;DHT22;25589;51.552;13.424;2023-08-17T04:22:19;21.50;99.90
39919;DHT22;25589;51.552;13.424;2023-08-17T04:24:45;21.60;99.90
39919;DHT22;25589;51.552;13.424;2023-08-17T04:27:11;21.60;99.90
39919;DHT22;25589;51.552;13.424;2023-08-17T04:29:38;21.60;99.90
39919;DHT22;25589;51.552;13.424;2023-08-17T04:32:04;21.60;99.90
39919;DHT22;25589;51.552;13.424;2023-08-17T04:34:29;21.60;99.90
39919;DHT22;25589;51.552;13.424;2023-08-17T04:36:55;21.60;99.90
39919;DHT22;25589;51.552;13.424;2023-08-17T04:39:21;21.70;99.90
39919;DHT22;25589;51.552;13.424;2023-08-17T04:41:46;21.70;99.90
39919;DHT22;25589;51.552;13.424;2023-08-17T04:44:17;21.70;99.90
39919;DHT22;25589;51.552;13.424;2023-08-17T04:46:43;21.80;99.90
39919;DHT22;25589;51.552;13.424;2023-08-17T04:49:08;21.90;99.90
39919;DHT22;25589;51.552;13.424;2023-08-17T04:51:34;21.80;99.90
39919;DHT22;25589;51.552;13.424;2023-08-17T04:53:59;21.90;99.90
39919;DHT22;25589;51.552;13.424;2023-08-17T04:56:25;21.60;99.90
39919;DHT22;25589;51.552;13.424;2023-08-17T04:58:51;21.60;99.90
39919;DHT22;25589;51.552;13.424;2023-08-17T05:01:17;21.50;99.90
39919;DHT22;25589;51.552;13.424;2023-08-17T05:03:43;21.40;99.90
39919;DHT22;25589;51.552;13.424;2023-08-17T05:06:09;21.60;99.90
39919;DHT22;25589;51.552;13.424;2023-08-17T05:08:35;21.60;99.90
39919;DHT22;25589;51.552;13.424;2023-08-17T05:11:01;21.70;99.90
39919;DHT22;25589;51.552;13.424;2023-08-17T05:13:26;21.60;99.90
39919;DHT22;25589;51.552;13.424;2023-08-17T05:15:55;21.60;99.90
39919;DHT22;25589;51.552;13.424;2023-08-17T05:18:21;21.60;99.90
39919;DHT22;25589;51.552;13.424;2023-08-17T05:20:47;21.60;99.90
39919;DHT22;25589;51.552;13.424;2023-08-17T05:23:13;21.50;99.90
39919;DHT22;25589;51.552;13.424;2023-08-17T05:25:38;21.40;99.90
39919;DHT22;25589;51.552;13.424;2023-08-17T05:28:04;21.50;99.90
39919;DHT22;25589;51.552;13.424;2023-08-17T05:30:30;21.60;99.90
39919;DHT22;25589;51.552;13.424;2023-08-17T05:32:55;21.80;99.90
39919;DHT22;25589;51.552;13.424;2023-08-17T05:35:21;21.70;99.90
39919;DHT22;25589;51.552;13.424;2023-08-17T05:37:47;21.70;99.90
39919;DHT22;25589;51.552;13.424;2023-08-17T05:40:12;21.70;99.90
39919;DHT22;25589;51.552;13.424;2023-08-17T05:42:38;21.60;99.90
39919;DHT22;25589;51.552;13.424;2023-08-17T05:45:04;21.60;99.90
39919;DHT22;25589;51.552;13.424;2023-08-17T05:47:30;21.60;99.90
39919;DHT22;25589;51.552;13.424;2023-08-17T05:49:55;21.80;99.90
39919;DHT22;25589;51.552;13.424;2023-08-17T05:52:21;21.90;99.90
39919;DHT22;25589;51.552;13.424;2023-08-17T05:54:46;22.00;99.90
39919;DHT22;25589;51.552;13.424;2023-08-17T05:57:12;22.00;99.90
39919;DHT22;25589;51.552;13.424;2023-08-17T05:59:37;22.10;99.90
39919;DHT22;25589;51.552;13.424;2023-08-17T06:02:03;22.10;99.90
39919;DHT22;25589;51.552;13.424;2023-08-17T06:04:29;22.10;99.90
39919;DHT22;25589;51.552;13.424;2023-08-17T06:06:55;22.00;99.90
39919;DHT22;25589;51.552;13.424;2023-08-17T06:09:20;22.00;99.90
39919;DHT22;25589;51.552;13.424;2023-08-17T06:11:46;22.00;99.90
39919;DHT22;25589;51.552;13.424;2023-08-17T06:14:11;22.10;99.90
39919;DHT22;25589;51.552;13.424;2023-08-17T06:16:37;22.20;99.90
39919;DHT22;25589;51.552;13.424;2023-08-17T06:19:03;22.30;99.90
39919;DHT22;25589;51.552;13.424;2023-08-17T06:21:29;22.40;99.90
39919;DHT22;25589;51.552;13.424;2023-08-17T06:23:54;22.70;99.90
39919;DHT22;25589;51.552;13.424;2023-08-17T06:26:20;22.80;99.90
39919;DHT22;25589;51.552;13.424;2023-08-17T06:28:45;22.80;99.90
39919;DHT22;25589;51.552;13.424;2023-08-17T06:31:14;22.90;99.90
39919;DHT22;25589;51.552;13.424;2023-08-17T06:33:40;22.90;99.90
39919;DHT22;25589;51.552;13.424;2023-08-17T06:36:05;22.90;99.90
39919;DHT22;25589;51.552;13.424;2023-08-17T06:38:31;23.10;99.90
39919;DHT22;25589;51.552;13.424;2023-08-17T06:40:56;23.10;99.90
39919;DHT22;25589;51.552;13.424;2023-08-17T06:43:22;23.20;99.90
39919;DHT22;25589;51.552;13.424;2023-08-17T06:45:47;23.20;99.90
39919;DHT22;25589;51.552;13.424;2023-08-17T06:48:13;23.30;99.90
39919;DHT22;25589;51.552;13.424;2023-08-17T06:50:39;23.40;99.90
39919;DHT22;25589;51.552;13.424;2023-08-17T06:53:05;23.50;99.90
39919;DHT22;25589;51.552;13.424;2023-08-17T06:55:30;23.50;99.90
39919;DHT22;25589;51.552;13.424;2023-08-17T06:57:57;23.50;99.90
39919;DHT22;25589;51.552;13.424;2023-08-17T07:00:22;23.50;99.90
39919;DHT22;25589;51.552;13.424;2023-08-17T07:02:48;23.60;99.90
39919;DHT22;25589;51.552;13.424;2023-08-17T07:05:17;23.50;99.90
39919;DHT22;25589;51.552;13.424;2023-08-17T07:07:45;23.50;99.90
39919;DHT22;25589;51.552;13.424;2023-08-17T07:10:11;23.70;99.90
39919;DHT22;25589;51.552;13.424;2023-08-17T07:12:37;23.70;99.90
39919;DHT22;25589;51.552;13.424;2023-08-17T07:15:04;23.80;99.90
39919;DHT22;25589;51.552;13.424;2023-08-17T07:17:30;23.80;99.90
39919;DHT22;25589;51.552;13.424;2023-08-17T07:19:55;23.90;99.90
39919;DHT22;25589;51.552;13.424;2023-08-17T07:22:21;23.90;99.90
39919;DHT22;25589;51.552;13.424;2023-08-17T07:24:47;24.10;99.90
39919;DHT22;25589;51.552;13.424;2023-08-17T07:27:12;24.10;99.90
39919;DHT22;25589;51.552;13.424;2023-08-17T07:29:38;24.20;99.90
39919;DHT22;25589;51.552;13.424;2023-08-17T07:32:04;24.40;99.90
39919;DHT22;25589;51.552;13.424;2023-08-17T07:34:29;24.30;99.90
39919;DHT22;25589;51.552;13.424;2023-08-17T07:36:57;24.30;99.90
39919;DHT22;25589;51.552;13.424;2023-08-17T07:39:22;24.40;99.90
39919;DHT22;25589;51.552;13.424;2023-08-17T07:41:48;24.40;99.90
39919;DHT22;25589;51.552;13.424;2023-08-17T07:44:13;24.40;99.90
39919;DHT22;25589;51.552;13.424;2023-08-17T07:46:39;24.60;99.90
39919;DHT22;25589;51.552;13.424;2023-08-17T07:49:05;24.60;99.90
39919;DHT22;25589;51.552;13.424;2023-08-17T07:51:30;24.70;99.90
39919;DHT22;25589;51.552;13.424;2023-08-17T07:53:59;24.70;99.90
39919;DHT22;25589;51.552;13.424;2023-08-17T07:56:25;24.60;99.90
39919;DHT22;25589;51.552;13.424;2023-08-17T07:58:50;24.60;99.90
39919;DHT22;25589;51.552;13.424;2023-08-17T08:01:16;24.50;99.90
39919;DHT22;25589;51.552;13.424;2023-08-17T08:03:41;24.50;99.90
39919;DHT22;25589;51.552;13.424;2023-08-17T08:06:07;24.70;99.90
39919;DHT22;25589;51.552;13.424;2023-08-17T08:08:32;24.80;99.90
39919;DHT22;25589;51.552;13.424;2023-08-17T08:10:58;25.00;99.90
39919;DHT22;25589;51.552;13.424;2023-08-17T08:13:24;25.10;99.90
39919;DHT22;25589;51.552;13.424;2023-08-17T08:15:50;25.10;99.90
39919;DHT22;25589;51.552;13.424;2023-08-17T08:18:15;25.20;99.90
39919;DHT22;25589;51.552;13.424;2023-08-17T08:20:41;25.40;99.90
39919;DHT22;25589;51.552;13.424;2023-08-17T08:23:06;25.60;99.90
39919;DHT22;25589;51.552;13.424;2023-08-17T08:25:32;25.70;99.90
39919;DHT22;25589;51.552;13.424;2023-08-17T08:27:57;25.70;99.90
39919;DHT22;25589;51.552;13.424;2023-08-17T08:30:23;25.70;99.90
39919;DHT22;25589;51.552;13.424;2023-08-17T08:32:49;25.80;99.90
39919;DHT22;25589;51.552;13.424;2023-08-17T08:35:15;25.80;99.90
39919;DHT22;25589;51.552;13.424;2023-08-17T08:37:40;25.70;99.90
39919;DHT22;25589;51.552;13.424;2023-08-17T08:40:11;25.70;99.90
39919;DHT22;25589;51.552;13.424;2023-08-17T08:42:37;25.80;99.90
39919;DHT22;25589;51.552;13.424;2023-08-17T08:45:03;25.80;99.90
39919;DHT22;25589;51.552;13.424;2023-08-17T08:47:29;26.00;99.90
39919;DHT22;25589;51.552;13.424;2023-08-17T08:50:01;26.00;99.90
39919;DHT22;25589;51.552;13.424;2023-08-17T08:52:33;26.00;99.90
39919;DHT22;25589;51.552;13.424;2023-08-17T08:55:07;26.20;99.90
39919;DHT22;25589;51.552;13.424;2023-08-17T08:57:34;26.30;99.90
39919;DHT22;25589;51.552;13.424;2023-08-17T09:00:01;26.40;99.90
39919;DHT22;25589;51.552;13.424;2023-08-17T09:02:27;26.40;99.90
39919;DHT22;25589;51.552;13.424;2023-08-17T09:04:53;26.40;99.90
39919;DHT22;25589;51.552;13.424;2023-08-17T09:07:20;26.40;99.90
39919;DHT22;25589;51.552;13.424;2023-08-17T09:09:48;26.30;99.90
39919;DHT22;25589;51.552;13.424;2023-08-17T09:12:13;26.40;99.90
39919;DHT22;25589;51.552;13.424;2023-08-17T09:14:39;26.40;99.90
39919;DHT22;25589;51.552;13.424;2023-08-17T09:17:06;26.40;99.90
39919;DHT22;25589;51.552;13.424;2023-08-17T09:19:32;26.60;99.90
39919;DHT22;25589;51.552;13.424;2023-08-17T09:21:59;26.90;99.90
39919;DHT22;25589;51.552;13.424;2023-08-17T09:24:33;27.10;99.90
39919;DHT22;25589;51.552;13.424;2023-08-17T09:26:59;27.30;99.90
39919;DHT22;25589;51.552;13.424;2023-08-17T09:29:25;27.40;99.90
39919;DHT22;25589;51.552;13.424;2023-08-17T09:31:51;27.50;99.90
39919;DHT22;25589;51.552;13.424;2023-08-17T09:34:17;27.60;99.90
39919;DHT22;25589;51.552;13.424;2023-08-17T09:36:46;27.60;99.90
39919;DHT22;25589;51.552;13.424;2023-08-17T09:39:12;27.80;99.90
39919;DHT22;25589;51.552;13.424;2023-08-17T09:41:38;27.90;99.90
39919;DHT22;25589;51.552;13.424;2023-08-17T09:44:06;28.10;99.90
39919;DHT22;25589;51.552;13.424;2023-08-17T09:46:32;28.30;99.90
39919;DHT22;25589;51.552;13.424;2023-08-17T09:48:57;28.40;99.90
39919;DHT22;25589;51.552;13.424;2023-08-17T09:51:24;28.50;99.90
39919;DHT22;25589;51.552;13.424;2023-08-17T09:53:53;28.50;99.90
39919;DHT22;25589;51.552;13.424;2023-08-17T09:56:21;28.50;99.90
39919;DHT22;25589;51.552;13.424;2023-08-17T09:58:49;28.60;99.90
39919;DHT22;25589;51.552;13.424;2023-08-17T10:01:15;28.60;99.90
39919;DHT22;25589;51.552;13.424;2023-08-17T10:03:43;28.70;99.90
39919;DHT22;25589;51.552;13.424;2023-08-17T10:06:13;28.80;99.90
39919;DHT22;25589;51.552;13.424;2023-08-17T10:08:49;29.00;99.90
39919;DHT22;25589;51.552;13.424;2023-08-17T10:11:20;29.10;99.90
39919;DHT22;25589;51.552;13.424;2023-08-17T10:13:52;29.10;99.90
39919;DHT22;25589;51.552;13.424;2023-08-17T10:16:24;29.30;99.90
39919;DHT22;25589;51.552;13.424;2023-08-17T10:19:05;29.30;99.90
39919;DHT22;25589;51.552;13.424;2023-08-17T10:21:44;29.30;99.90
39919;DHT22;25589;51.552;13.424;2023-08-17T10:24:12;29.20;99.90
39919;DHT22;25589;51.552;13.424;2023-08-17T10:26:38;29.40;99.90
39919;DHT22;25589;51.552;13.424;2023-08-17T10:29:05;29.60;99.90
39919;DHT22;25589;51.552;13.424;2023-08-17T10:31:34;29.70;99.90
39919;DHT22;25589;51.552;13.424;2023-08-17T10:34:00;29.50;99.90
39919;DHT22;25589;51.552;13.424;2023-08-17T10:36:26;29.50;99.90
39919;DHT22;25589;51.552;13.424;2023-08-17T10:39:21;29.60;99.90
39919;DHT22;25589;51.552;13.424;2023-08-17T10:41:48;29.70;99.90
39919;DHT22;25589;51.552;13.424;2023-08-17T10:44:14;29.60;99.90
39919;DHT22;25589;51.552;13.424;2023-08-17T10:46:40;29.60;99.90
39919;DHT22;25589;51.552;13.424;2023-08-17T10:49:07;29.40;99.90
39919;DHT22;25589;51.552;13.424;2023-08-17T10:52:15;29.40;99.90
39919;DHT22;25589;51.552;13.424;2023-08-17T10:54:49;29.50;99.90
39919;DHT22;25589;51.552;13.424;2023-08-17T10:57:27;29.40;99.90
39919;DHT22;25589;51.552;13.424;2023-08-17T11:00:16;29.50;99.90
39919;DHT22;25589;51.552;13.424;2023-08-17T11:02:56;29.60;99.90
39919;DHT22;25589;51.552;13.424;2023-08-17T11:05:47;29.60;99.90
39919;DHT22;25589;51.552;13.424;2023-08-17T11:08:39;29.80;99.90
39919;DHT22;25589;51.552;13.424;2023-08-17T11:11:13;29.80;99.90
39919;DHT22;25589;51.552;13.424;2023-08-17T11:13:44;29.90;99.90
39919;DHT22;25589;51.552;13.424;2023-08-17T11:16:11;30.00;99.90
39919;DHT22;25589;51.552;13.424;2023-08-17T11:18:37;30.00;99.90
39919;DHT22;25589;51.552;13.424;2023-08-17T11:21:04;30.10;99.90
39919;DHT22;25589;51.552;13.424;2023-08-17T11:23:31;29.90;99.90
39919;DHT22;25589;51.552;13.424;2023-08-17T11:25:58;29.80;99.90
39919;DHT22;25589;51.552;13.424;2023-08-17T11:28:23;29.90;99.90
39919;DHT22;25589;51.552;13.424;2023-08-17T11:31:07;30.00;99.90
39919;DHT22;25589;51.552;13.424;2023-08-17T11:33:34;30.10;99.90
39919;DHT22;25589;51.552;13.424;2023-08-17T11:36:02;30.00;99.90
39919;DHT22;25589;51.552;13.424;2023-08-17T11:38:31;30.10;99.90
39919;DHT22;25589;51.552;13.424;2023-08-17T11:40:58;30.10;99.90
39919;DHT22;25589;51.552;13.424;2023-08-17T11:43:23;30.10;99.90
39919;DHT22;25589;51.552;13.424;2023-08-17T11:45:49;30.30;99.90
39919;DHT22;25589;51.552;13.424;2023-08-17T11:48:15;30.60;99.90
39919;DHT22;25589;51.552;13.424;2023-08-17T11:50:42;31.00;99.90
39919;DHT22;25589;51.552;13.424;2023-08-17T11:53:08;31.20;99.90
39919;DHT22;25589;51.552;13.424;2023-08-17T11:55:34;31.40;99.90
39919;DHT22;25589;51.552;13.424;2023-08-17T11:57:59;31.60;99.90
39919;DHT22;25589;51.552;13.424;2023-08-17T12:00:26;31.60;99.90
39919;DHT22;25589;51.552;13.424;2023-08-17T12:02:53;31.70;99.90
39919;DHT22;25589;51.552;13.424;2023-08-17T12:05:20;31.90;99.90
39919;DHT22;25589;51.552;13.424;2023-08-17T12:07:47;32.30;99.90
39919;DHT22;25589;51.552;13.424;2023-08-17T12:10:12;32.50;99.90
39919;DHT22;25589;51.552;13.424;2023-08-17T12:12:38;32.70;99.90
39919;DHT22;25589;51.552;13.424;2023-08-17T12:15:05;32.60;99.90
39919;DHT22;25589;51.552;13.424;2023-08-17T12:17:31;32.70;99.90
39919;DHT22;25589;51.552;13.424;2023-08-17T12:19:58;32.80;99.90
39919;DHT22;25589;51.552;13.424;2023-08-17T12:22:25;32.80;99.90
39919;DHT22;25589;51.552;13.424;2023-08-17T12:24:51;32.80;99.90
39919;DHT22;25589;51.552;13.424;2023-08-17T12:27:17;32.90;99.90
39919;DHT22;25589;51.552;13.424;2023-08-17T12:29:51;32.70;99.90
39919;DHT22;25589;51.552;13.424;2023-08-17T12:32:17;32.50;99.90
39919;DHT22;25589;51.552;13.424;2023-08-17T12:34:43;32.50;99.90
39919;DHT22;25589;51.552;13.424;2023-08-17T12:37:10;32.80;99.90
39919;DHT22;25589;51.552;13.424;2023-08-17T12:39:37;33.00;99.90
39919;DHT22;25589;51.552;13.424;2023-08-17T12:42:03;33.30;99.90
39919;DHT22;25589;51.552;13.424;2023-08-17T12:44:29;33.30;99.90
39919;DHT22;25589;51.552;13.424;2023-08-17T12:46:54;33.60;99.70
39919;DHT22;25589;51.552;13.424;2023-08-17T12:49:20;34.00;99.20
39919;DHT22;25589;51.552;13.424;2023-08-17T12:51:45;33.90;98.80
39919;DHT22;25589;51.552;13.424;2023-08-17T12:54:11;34.00;98.70
39919;DHT22;25589;51.552;13.424;2023-08-17T12:56:36;33.90;98.40
39919;DHT22;25589;51.552;13.424;2023-08-17T12:59:02;34.30;98.30
39919;DHT22;25589;51.552;13.424;2023-08-17T13:01:27;34.60;97.70
39919;DHT22;25589;51.552;13.424;2023-08-17T13:03:53;34.70;96.70
39919;DHT22;25589;51.552;13.424;2023-08-17T13:06:19;34.50;96.70
39919;DHT22;25589;51.552;13.424;2023-08-17T13:08:45;34.70;96.80
39919;DHT22;25589;51.552;13.424;2023-08-17T13:11:10;34.60;96.80
39919;DHT22;25589;51.552;13.424;2023-08-17T13:13:36;35.00;96.00
39919;DHT22;25589;51.552;13.424;2023-08-17T13:16:01;35.00;95.50
39919;DHT22;25589;51.552;13.424;2023-08-17T13:18:27;35.10;95.30
39919;DHT22;25589;51.552;13.424;2023-08-17T13:20:54;35.10;95.00
39919;DHT22;25589;51.552;13.424;2023-08-17T13:23:19;35.10;95.10
39919;DHT22;25589;51.552;13.424;2023-08-17T13:25:45;35.30;94.20
39919;DHT22;25589;51.552;13.424;2023-08-17T13:28:11;35.40;94.30
39919;DHT22;25589;51.552;13.424;2023-08-17T13:30:38;35.60;93.90
39919;DHT22;25589;51.552;13.424;2023-08-17T13:33:04;35.60;93.80
39919;DHT22;25589;51.552;13.424;2023-08-17T13:35:32;35.40;93.60
39919;DHT22;25589;51.552;13.424;2023-08-17T13:37:57;35.60;93.30
39919;DHT22;25589;51.552;13.424;2023-08-17T13:40:23;35.70;92.70
39919;DHT22;25589;51.552;13.424;2023-08-17T13:42:48;35.80;92.20
39919;DHT22;25589;51.552;13.424;2023-08-17T13:45:14;35.70;92.40
39919;DHT22;25589;51.552;13.424;2023-08-17T13:47:40;35.90;92.10
39919;DHT22;25589;51.552;13.424;2023-08-17T13:50:05;36.30;91.70
39919;DHT22;25589;51.552;13.424;2023-08-17T13:52:31;36.30;91.10
39919;DHT22;25589;51.552;13.424;2023-08-17T13:54:57;36.40;90.50
39919;DHT22;25589;51.552;13.424;2023-08-17T13:57:23;36.40;90.60
39919;DHT22;25589;51.552;13.424;2023-08-17T13:59:49;36.50;90.20
39919;DHT22;25589;51.552;13.424;2023-08-17T14:02:14;36.70;89.50
39919;DHT22;25589;51.552;13.424;2023-08-17T14:04:40;36.60;89.40
39919;DHT22;25589;51.552;13.424;2023-08-17T14:07:05;36.50;89.50
39919;DHT22;25589;51.552;13.424;2023-08-17T14:09:31;36.70;88.50
39919;DHT22;25589;51.552;13.424;2023-08-17T14:11:56;36.80;89.00
39919;DHT22;25589;51.552;13.424;2023-08-17T14:14:22;37.00;87.10
39919;DHT22;25589;51.552;13.424;2023-08-17T14:16:47;37.00;87.60
39919;DHT22;25589;51.552;13.424;2023-08-17T14:19:13;37.40;86.70
39919;DHT22;25589;51.552;13.424;2023-08-17T14:21:38;37.60;85.60
39919;DHT22;25589;51.552;13.424;2023-08-17T14:24:04;37.60;85.10
39919;DHT22;25589;51.552;13.424;2023-08-17T14:26:32;37.80;83.90
39919;DHT22;25589;51.552;13.424;2023-08-17T14:28:57;37.70;83.30
39919;DHT22;25589;51.552;13.424;2023-08-17T14:31:23;37.80;83.50
39919;DHT22;25589;51.552;13.424;2023-08-17T14:33:48;37.80;82.90
39919;DHT22;25589;51.552;13.424;2023-08-17T14:36:15;37.70;82.30
39919;DHT22;25589;51.552;13.424;2023-08-17T14:38:41;37.50;82.40
39919;DHT22;25589;51.552;13.424;2023-08-17T14:41:07;37.50;82.20
39919;DHT22;25589;51.552;13.424;2023-08-17T14:43:34;37.50;82.80
39919;DHT22;25589;51.552;13.424;2023-08-17T14:45:59;37.50;82.30
39919;DHT22;25589;51.552;13.424;2023-08-17T14:48:25;37.60;82.00
39919;DHT22;25589;51.552;13.424;2023-08-17T14:50:51;37.20;82.40
39919;DHT22;25589;51.552;13.424;2023-08-17T14:53:16;37.00;82.90
39919;DHT22;25589;51.552;13.424;2023-08-17T14:55:42;36.90;83.10
39919;DHT22;25589;51.552;13.424;2023-08-17T14:58:08;37.10;82.90
39919;DHT22;25589;51.552;13.424;2023-08-17T15:00:33;37.00;82.80
39919;DHT22;25589;51.552;13.424;2023-08-17T15:02:59;37.30;82.20
39919;DHT22;25589;51.552;13.424;2023-08-17T15:05:25;37.40;81.60
39919;DHT22;25589;51.552;13.424;2023-08-17T15:07:51;37.60;80.70
39919;DHT22;25589;51.552;13.424;2023-08-17T15:10:16;37.50;80.90
39919;DHT22;25589;51.552;13.424;2023-08-17T15:12:42;37.40;80.90
39919;DHT22;25589;51.552;13.424;2023-08-17T15:15:08;37.30;80.80